Time;durP1;ratioP1;P1;durP2;ratioP2;P2;SDS_P1;SDS_P2;PMS_P1;PMS_P2;Temp;Humidity;BMP_temperature;BMP_pressure;BME280_temperature;BME280_humidity;BME280_pressure;Samples;Min_cycle;Max_cycle;Signal;HPM_P1;HPM_P2
2022/04/04 00:01:06;;;;;;;1.63;1.30;;;;;;;;;;5064731;28;20205;-69
2022/04/04 00:03:33;;;;;;;1.47;1.10;;;;;;;;;;5067005;28;20391;-69
2022/04/04 00:06:00;;;;;;;1.10;1.00;;;;;;;;;;5067258;28;20205;-70
2022/04/04 00:08:27;;;;;;;1.20;1.10;;;;;;;;;;5056082;28;20279;-69
2022/04/04 00:10:55;;;;;;;1.50;1.37;;;;;;;;;;5066538;28;20615;-68
2022/04/04 00:13:22;;;;;;;1.10;1.00;;;;;;;;;;5058378;28;20354;-70
2022/04/04 00:15:50;;;;;;;1.50;1.40;;;;;;;;;;5066788;28;20194;-69
2022/04/04 00:18:17;;;;;;;1.13;1.03;;;;;;;;;;5070162;28;20854;-69
2022/04/04 00:20:44;;;;;;;1.37;1.10;;;;;;;;;;5066630;28;20194;-70
2022/04/04 00:23:14;;;;;;;1.10;1.00;;;;;;;;;;5066811;28;20197;-69
2022/04/04 00:25:43;;;;;;;2.77;1.17;;;;;;;;;;5046667;28;20650;-68
2022/04/04 00:28:10;;;;;;;1.37;1.27;;;;;;;;;;5057599;28;20224;-69
2022/04/04 00:30:38;;;;;;;1.30;1.20;;;;;;;;;;5067549;28;20507;-69
2022/04/04 00:33:05;;;;;;;1.33;1.07;;;;;;;;;;5072664;28;20197;-69
2022/04/04 00:35:32;;;;;;;1.20;1.03;;;;;;;;;;5062314;28;20643;-69
2022/04/04 00:38:08;;;;;;;1.30;1.10;;;;;;;;;;5063939;28;20230;-68
2022/04/04 00:40:43;;;;;;;1.70;1.20;;;;;;;;;;5064333;28;20193;-69
2022/04/04 00:43:12;;;;;;;1.50;1.23;;;;;;;;;;5065830;28;20270;-69
2022/04/04 00:45:45;;;;;;;1.13;1.07;;;;;;;;;;5040868;28;20229;-69
2022/04/04 00:48:17;;;;;;;1.40;1.30;;;;;;;;;;5070444;28;20220;-69
2022/04/04 00:50:48;;;;;;;1.20;1.10;;;;;;;;;;5065894;28;20220;-68
2022/04/04 00:53:19;;;;;;;1.10;0.93;;;;;;;;;;5063294;28;20198;-69
2022/04/04 00:55:53;;;;;;;1.30;1.10;;;;;;;;;;5058540;28;20190;-68
2022/04/04 00:58:23;;;;;;;0.97;0.87;;;;;;;;;;5068471;28;20229;-68
2022/04/04 01:00:53;;;;;;;1.37;1.20;;;;;;;;;;5068173;28;20220;-69
2022/04/04 01:03:24;;;;;;;1.20;1.10;;;;;;;;;;5066687;28;20205;-68
2022/04/04 01:05:59;;;;;;;1.70;1.30;;;;;;;;;;5070234;28;20638;-69
2022/04/04 01:08:28;;;;;;;2.10;1.33;;;;;;;;;;5069570;28;20575;-69
2022/04/04 01:10:55;;;;;;;1.33;1.23;;;;;;;;;;5070295;28;20197;-69
2022/04/04 01:13:23;;;;;;;1.20;1.10;;;;;;;;;;5061775;28;20206;-69
2022/04/04 01:15:50;;;;;;;1.20;1.07;;;;;;;;;;5070287;28;20263;-69
2022/04/04 01:18:17;;;;;;;1.57;1.27;;;;;;;;;;5069194;28;20244;-69
2022/04/04 01:20:44;;;;;;;1.10;1.00;;;;;;;;;;5075933;28;20190;-69
2022/04/04 01:23:18;;;;;;;1.93;1.30;;;;;;;;;;5069876;28;20202;-69
2022/04/04 01:25:45;;;;;;;1.57;1.47;;;;;;;;;;5069166;28;20224;-69
2022/04/04 01:28:13;;;;;;;1.30;1.20;;;;;;;;;;5069998;28;20236;-69
2022/04/04 01:30:40;;;;;;;1.80;1.70;;;;;;;;;;5069667;28;20228;-69
2022/04/04 01:33:08;;;;;;;1.30;1.20;;;;;;;;;;5070074;28;20335;-69
2022/04/04 01:35:38;;;;;;;1.80;1.40;;;;;;;;;;5064333;28;20202;-69
2022/04/04 01:38:05;;;;;;;1.93;1.43;;;;;;;;;;5064567;28;20275;-69
2022/04/04 01:40:32;;;;;;;1.50;1.40;;;;;;;;;;5071679;28;20193;-69
2022/04/04 01:42:59;;;;;;;1.83;1.30;;;;;;;;;;5051153;28;20194;-68
2022/04/04 01:48:13;;;;;;;1.90;1.17;;;;;;;;;;5045135;28;20279;-69
2022/04/04 01:50:40;;;;;;;2.37;1.50;;;;;;;;;;5063375;28;20612;-68
2022/04/04 01:53:25;;;;;;;1.60;1.40;;;;;;;;;;5069395;28;20240;-67
2022/04/04 01:55:53;;;;;;;1.30;1.20;;;;;;;;;;5073183;28;20197;-67
2022/04/04 01:58:20;;;;;;;1.70;1.40;;;;;;;;;;5068476;28;20270;-67
2022/04/04 02:00:48;;;;;;;2.30;1.87;;;;;;;;;;5065146;28;20291;-68
2022/04/04 02:03:15;;;;;;;1.33;1.20;;;;;;;;;;5056557;28;20182;-67
2022/04/04 02:05:42;;;;;;;1.57;1.47;;;;;;;;;;5068076;28;20181;-68
2022/04/04 02:08:09;;;;;;;2.10;1.40;;;;;;;;;;5067868;28;20202;-68
2022/04/04 02:10:37;;;;;;;1.60;1.50;;;;;;;;;;5079143;28;20197;-68
2022/04/04 02:13:04;;;;;;;2.00;1.83;;;;;;;;;;5065117;28;20213;-67
2022/04/04 02:15:31;;;;;;;1.60;1.50;;;;;;;;;;5071818;28;20248;-67
2022/04/04 02:17:58;;;;;;;1.30;1.20;;;;;;;;;;5067429;28;20210;-68
2022/04/04 02:20:25;;;;;;;2.07;1.17;;;;;;;;;;5068063;28;20216;-67
2022/04/04 02:22:52;;;;;;;2.13;1.30;;;;;;;;;;5068305;28;20209;-69
2022/04/04 02:25:19;;;;;;;1.60;1.50;;;;;;;;;;5070451;28;20213;-69
2022/04/04 02:27:47;;;;;;;1.77;1.60;;;;;;;;;;5069790;28;20202;-68
2022/04/04 02:30:14;;;;;;;1.90;1.60;;;;;;;;;;5067407;28;20190;-69
2022/04/04 02:32:41;;;;;;;1.83;1.73;;;;;;;;;;5045886;28;20208;-68
2022/04/04 02:35:08;;;;;;;1.50;1.37;;;;;;;;;;5066980;28;20598;-69
2022/04/04 02:37:35;;;;;;;2.23;1.33;;;;;;;;;;5063652;28;20210;-69
2022/04/04 02:40:04;;;;;;;1.90;1.60;;;;;;;;;;5067204;28;20190;-68
2022/04/04 02:42:31;;;;;;;2.30;1.37;;;;;;;;;;5067190;28;20209;-69
2022/04/04 02:44:58;;;;;;;1.27;1.10;;;;;;;;;;5068035;28;20209;-68
2022/04/04 02:47:25;;;;;;;1.73;1.10;;;;;;;;;;5047928;28;20186;-67
2022/04/04 02:49:52;;;;;;;2.27;1.80;;;;;;;;;;5068165;28;20275;-68
2022/04/04 02:52:19;;;;;;;2.47;1.70;;;;;;;;;;5061796;28;20624;-69
2022/04/04 02:54:46;;;;;;;1.70;1.60;;;;;;;;;;5070562;28;20202;-68
2022/04/04 02:57:16;;;;;;;1.90;1.70;;;;;;;;;;5066032;28;20236;-68
2022/04/04 02:59:43;;;;;;;2.27;1.83;;;;;;;;;;5011055;28;1026056;-70
2022/04/04 03:02:11;;;;;;;1.50;1.30;;;;;;;;;;5069927;28;20320;-68
2022/04/04 03:04:40;;;;;;;1.80;1.70;;;;;;;;;;5067935;28;20263;-69
2022/04/04 03:07:08;;;;;;;1.73;1.63;;;;;;;;;;5071821;28;20688;-68
2022/04/04 03:09:37;;;;;;;3.37;1.47;;;;;;;;;;5065455;28;20204;-68
2022/04/04 03:12:05;;;;;;;2.13;1.80;;;;;;;;;;5072615;28;20553;-69
2022/04/04 03:14:32;;;;;;;3.03;1.40;;;;;;;;;;5067571;28;20263;-68
2022/04/04 03:17:00;;;;;;;1.70;1.50;;;;;;;;;;5051147;28;20213;-68
2022/04/04 03:19:27;;;;;;;1.60;1.50;;;;;;;;;;5065657;28;20249;-68
2022/04/04 03:21:56;;;;;;;1.30;1.17;;;;;;;;;;5076046;28;20193;-69
2022/04/04 03:24:23;;;;;;;1.80;1.70;;;;;;;;;;5065102;28;20202;-68
2022/04/04 03:26:51;;;;;;;2.53;1.80;;;;;;;;;;5047558;28;20271;-68
2022/04/04 03:29:18;;;;;;;1.67;1.57;;;;;;;;;;5064854;28;20242;-68
2022/04/04 03:31:45;;;;;;;1.43;1.33;;;;;;;;;;5067520;28;20201;-68
2022/04/04 03:34:12;;;;;;;2.13;1.70;;;;;;;;;;5067169;28;20295;-69
2022/04/04 03:36:40;;;;;;;2.43;1.60;;;;;;;;;;5072611;28;20217;-68
2022/04/04 03:39:07;;;;;;;1.63;1.50;;;;;;;;;;5066837;28;20205;-69
2022/04/04 03:41:35;;;;;;;1.63;1.30;;;;;;;;;;5067349;28;20185;-67
2022/04/04 03:44:02;;;;;;;1.80;1.33;;;;;;;;;;5067566;28;20231;-67
2022/04/04 03:46:29;;;;;;;1.20;1.10;;;;;;;;;;5067631;28;20194;-68
2022/04/04 03:48:57;;;;;;;1.70;1.50;;;;;;;;;;5034726;28;20280;-68
2022/04/04 03:51:25;;;;;;;2.03;1.60;;;;;;;;;;5062806;28;20239;-67
2022/04/04 03:53:52;;;;;;;2.03;1.50;;;;;;;;;;5068450;28;20260;-68
2022/04/04 03:56:20;;;;;;;2.47;1.57;;;;;;;;;;5067199;28;20653;-68
2022/04/04 03:58:47;;;;;;;2.33;1.37;;;;;;;;;;5065926;28;20659;-68
2022/04/04 04:01:15;;;;;;;1.67;1.40;;;;;;;;;;5068427;28;20224;-67
2022/04/04 04:03:42;;;;;;;2.13;1.63;;;;;;;;;;5067526;28;20615;-68
2022/04/04 04:06:12;;;;;;;2.23;1.60;;;;;;;;;;5067274;28;20239;-68
2022/04/04 04:08:41;;;;;;;1.57;1.33;;;;;;;;;;5067439;28;20197;-68
2022/04/04 04:11:08;;;;;;;1.40;1.30;;;;;;;;;;5067708;28;20201;-68
2022/04/04 04:13:36;;;;;;;2.17;1.70;;;;;;;;;;5062326;28;20218;-69
2022/04/04 04:16:03;;;;;;;1.93;1.70;;;;;;;;;;5067818;28;20208;-68
2022/04/04 04:18:31;;;;;;;2.50;1.40;;;;;;;;;;5067640;28;20245;-69
2022/04/04 04:20:58;;;;;;;1.97;1.60;;;;;;;;;;5068060;28;20190;-68
2022/04/04 04:23:25;;;;;;;1.80;1.23;;;;;;;;;;5062501;28;20572;-66
2022/04/04 04:25:52;;;;;;;1.60;1.50;;;;;;;;;;5067619;28;20247;-68
2022/04/04 04:28:19;;;;;;;1.80;1.30;;;;;;;;;;5079255;28;20198;-67
2022/04/04 04:30:46;;;;;;;1.43;1.20;;;;;;;;;;5068770;28;20690;-67
2022/04/04 04:33:15;;;;;;;1.30;1.20;;;;;;;;;;5065057;28;20185;-68
2022/04/04 04:35:43;;;;;;;1.57;1.47;;;;;;;;;;5058542;28;20666;-68
2022/04/04 04:38:10;;;;;;;1.63;1.53;;;;;;;;;;5066808;28;20246;-67
2022/04/04 04:40:37;;;;;;;1.73;1.40;;;;;;;;;;5066663;28;20390;-68
2022/04/04 04:43:04;;;;;;;1.93;1.40;;;;;;;;;;5077139;28;20655;-67
2022/04/04 04:45:32;;;;;;;1.77;1.67;;;;;;;;;;5075005;28;20267;-68
2022/04/04 04:47:59;;;;;;;1.60;1.50;;;;;;;;;;5062772;28;20231;-68
2022/04/04 04:50:26;;;;;;;2.07;1.40;;;;;;;;;;5065197;28;20259;-68
2022/04/04 04:52:54;;;;;;;1.77;1.40;;;;;;;;;;5065707;28;20312;-68
2022/04/04 04:55:43;;;;;;;1.60;1.50;;;;;;;;;;5067052;28;20201;-66
2022/04/04 04:58:22;;;;;;;1.70;1.60;;;;;;;;;;5060569;28;20319;-68
2022/04/04 05:01:12;;;;;;;1.90;1.70;;;;;;;;;;5071737;28;20186;-66
2022/04/04 05:03:42;;;;;;;2.00;1.40;;;;;;;;;;5064398;28;20251;-68
2022/04/04 05:06:11;;;;;;;1.43;1.33;;;;;;;;;;5050856;28;20685;-68
2022/04/04 05:08:43;;;;;;;1.40;1.20;;;;;;;;;;5065635;28;20198;-69
2022/04/04 05:11:15;;;;;;;1.60;1.50;;;;;;;;;;5065759;28;20201;-66
2022/04/04 05:13:46;;;;;;;1.57;1.37;;;;;;;;;;5066957;28;20210;-66
2022/04/04 05:16:14;;;;;;;2.10;1.90;;;;;;;;;;5066318;28;20224;-69
2022/04/04 05:18:45;;;;;;;1.87;1.70;;;;;;;;;;5064963;28;20209;-68
2022/04/04 05:21:12;;;;;;;2.13;1.93;;;;;;;;;;5059823;28;20616;-68
2022/04/04 05:23:40;;;;;;;1.50;1.40;;;;;;;;;;5041445;28;20221;-68
2022/04/04 05:26:09;;;;;;;1.80;1.70;;;;;;;;;;5065415;28;20187;-69
2022/04/04 05:28:36;;;;;;;2.07;1.87;;;;;;;;;;5067187;28;20202;-68
2022/04/04 05:31:05;;;;;;;2.50;2.10;;;;;;;;;;5066309;28;20251;-68
2022/04/04 05:33:32;;;;;;;2.60;2.27;;;;;;;;;;5068094;28;20610;-67
2022/04/04 05:36:00;;;;;;;2.10;1.90;;;;;;;;;;5073895;28;20220;-66
2022/04/04 05:38:28;;;;;;;2.33;2.00;;;;;;;;;;5068390;28;20186;-68
2022/04/04 05:40:55;;;;;;;3.63;2.30;;;;;;;;;;5067558;28;20239;-69
2022/04/04 05:43:22;;;;;;;4.10;2.60;;;;;;;;;;5060230;28;20684;-69
2022/04/04 05:45:50;;;;;;;10.43;3.20;;;;;;;;;;5070357;28;20357;-66
2022/04/04 05:48:17;;;;;;;6.57;3.40;;;;;;;;;;5071193;28;20213;-66
2022/04/04 05:50:44;;;;;;;9.90;3.03;;;;;;;;;;5069943;28;20695;-66
2022/04/04 05:53:11;;;;;;;7.30;2.83;;;;;;;;;;5069388;28;20209;-66
2022/04/04 05:55:38;;;;;;;6.77;3.23;;;;;;;;;;5064333;28;20259;-67
2022/04/04 05:58:05;;;;;;;6.43;3.47;;;;;;;;;;5065148;28;20205;-68
2022/04/04 06:00:32;;;;;;;6.73;3.40;;;;;;;;;;5065374;28;20918;-68
2022/04/04 06:03:00;;;;;;;6.93;3.80;;;;;;;;;;5062174;28;20202;-67
2022/04/04 06:05:27;;;;;;;8.07;3.30;;;;;;;;;;5066967;28;20598;-66
2022/04/04 06:07:54;;;;;;;6.23;3.30;;;;;;;;;;5064273;28;20201;-66
2022/04/04 06:10:22;;;;;;;7.37;3.40;;;;;;;;;;5070132;28;20198;-66
2022/04/04 06:12:53;;;;;;;5.47;2.87;;;;;;;;;;5039525;28;20306;-67
2022/04/04 06:15:23;;;;;;;99.40;19.07;;;;;;;;;;5065130;28;20182;-65
2022/04/04 06:17:54;;;;;;;99.13;21.17;;;;;;;;;;5073268;28;20190;-66
2022/04/04 06:20:21;;;;;;;113.73;22.23;;;;;;;;;;5075805;28;20280;-64
2022/04/04 06:22:48;;;;;;;98.70;20.03;;;;;;;;;;5075190;28;20196;-65
2022/04/04 06:25:15;;;;;;;87.27;19.17;;;;;;;;;;5063739;28;20193;-66
2022/04/04 06:27:43;;;;;;;75.00;15.97;;;;;;;;;;5070331;28;20197;-66
2022/04/04 06:30:11;;;;;;;51.13;12.57;;;;;;;;;;5073879;28;20587;-67
2022/04/04 06:32:40;;;;;;;47.43;12.90;;;;;;;;;;5078810;28;20212;-68
2022/04/04 06:35:08;;;;;;;35.50;10.60;;;;;;;;;;5075116;28;21391;-68
2022/04/04 06:37:36;;;;;;;36.93;10.50;;;;;;;;;;5069687;28;20353;-67
2022/04/04 06:40:04;;;;;;;26.63;8.83;;;;;;;;;;5050579;28;20233;-68
2022/04/04 06:42:35;;;;;;;26.87;8.13;;;;;;;;;;5077863;28;20548;-70
2022/04/04 06:45:03;;;;;;;21.57;6.87;;;;;;;;;;5077793;28;20227;-68
2022/04/04 06:47:31;;;;;;;20.90;6.43;;;;;;;;;;5068664;28;20185;-65
2022/04/04 06:49:59;;;;;;;15.70;5.87;;;;;;;;;;5073648;28;20213;-67
2022/04/04 06:52:29;;;;;;;16.03;5.63;;;;;;;;;;5081222;28;20231;-66
2022/04/04 06:54:57;;;;;;;19.50;5.10;;;;;;;;;;5075478;28;20205;-65
2022/04/04 06:57:24;;;;;;;12.57;4.93;;;;;;;;;;5072616;28;20215;-67
2022/04/04 06:59:51;;;;;;;13.33;4.97;;;;;;;;;;5074129;28;20333;-69
2022/04/04 07:02:18;;;;;;;12.57;5.07;;;;;;;;;;5079158;28;20197;-66
2022/04/04 07:04:45;;;;;;;10.13;3.93;;;;;;;;;;5078250;28;20205;-67
2022/04/04 07:07:14;;;;;;;10.23;3.97;;;;;;;;;;5074730;28;20201;-68
2022/04/04 07:09:41;;;;;;;9.77;4.07;;;;;;;;;;5075966;28;20220;-69
2022/04/04 07:12:10;;;;;;;6.37;3.50;;;;;;;;;;5076376;28;20212;-70
2022/04/04 07:14:42;;;;;;;9.27;3.73;;;;;;;;;;5056578;28;20196;-70
2022/04/04 07:17:14;;;;;;;6.80;3.03;;;;;;;;;;5071518;28;20813;-68
2022/04/04 07:19:47;;;;;;;6.70;2.80;;;;;;;;;;5074376;28;20705;-68
2022/04/04 07:22:17;;;;;;;7.77;3.43;;;;;;;;;;5075298;28;20185;-71
2022/04/04 07:24:47;;;;;;;7.70;2.70;;;;;;;;;;5072719;28;20210;-69
2022/04/04 07:27:19;;;;;;;5.27;2.70;;;;;;;;;;5075822;28;20684;-69
2022/04/04 07:29:51;;;;;;;4.63;2.60;;;;;;;;;;5079097;28;20554;-69
2022/04/04 07:32:21;;;;;;;4.77;2.27;;;;;;;;;;5078464;28;20209;-66
2022/04/04 07:34:54;;;;;;;3.50;2.03;;;;;;;;;;5076971;28;20225;-64
2022/04/04 07:37:28;;;;;;;3.80;2.23;;;;;;;;;;5074285;28;20205;-68
2022/04/04 07:39:58;;;;;;;3.30;2.17;;;;;;;;;;5075894;28;20281;-68
2022/04/04 07:42:25;;;;;;;4.10;2.37;;;;;;;;;;5071000;28;20650;-69
2022/04/04 07:44:52;;;;;;;3.53;2.00;;;;;;;;;;5077513;28;20197;-68
2022/04/04 07:47:20;;;;;;;5.27;2.30;;;;;;;;;;5074542;28;20205;-67
2022/04/04 07:49:47;;;;;;;7.03;2.10;;;;;;;;;;5071868;28;20220;-68
2022/04/04 07:52:14;;;;;;;3.37;1.87;;;;;;;;;;5077010;28;20206;-70
2022/04/04 07:54:42;;;;;;;3.23;1.70;;;;;;;;;;5072303;28;20202;-69
2022/04/04 07:57:09;;;;;;;2.30;1.67;;;;;;;;;;5071207;28;20198;-71
2022/04/04 07:59:36;;;;;;;3.20;1.80;;;;;;;;;;5064059;28;20831;-69
2022/04/04 08:02:03;;;;;;;2.63;1.57;;;;;;;;;;5069502;28;20713;-68
2022/04/04 08:04:31;;;;;;;2.27;1.33;;;;;;;;;;5068138;28;20526;-71
2022/04/04 08:06:58;;;;;;;2.70;1.37;;;;;;;;;;5075742;28;20185;-65
2022/04/04 08:09:26;;;;;;;3.13;1.70;;;;;;;;;;5069897;28;20205;-67
2022/04/04 08:11:55;;;;;;;4.13;1.57;;;;;;;;;;5065696;28;20205;-65
2022/04/04 08:14:23;;;;;;;2.80;1.70;;;;;;;;;;5065836;28;20251;-69
2022/04/04 08:16:51;;;;;;;3.93;1.90;;;;;;;;;;5052333;28;20262;-70
2022/04/04 08:19:20;;;;;;;3.57;1.90;;;;;;;;;;5070057;28;20213;-69
2022/04/04 08:21:47;;;;;;;5.20;1.70;;;;;;;;;;5077051;28;20200;-67
2022/04/04 08:24:14;;;;;;;3.03;2.00;;;;;;;;;;5063310;28;20587;-67
2022/04/04 08:26:42;;;;;;;2.40;1.53;;;;;;;;;;5067726;28;20229;-69
2022/04/04 08:29:09;;;;;;;4.33;1.40;;;;;;;;;;5071441;28;20639;-69
2022/04/04 08:31:43;;;;;;;3.10;1.53;;;;;;;;;;5065878;28;20247;-69
2022/04/04 08:34:16;;;;;;;2.97;1.20;;;;;;;;;;5073272;28;20201;-66
2022/04/04 08:36:43;;;;;;;3.77;1.93;;;;;;;;;;5057890;28;20209;-67
2022/04/04 08:39:10;;;;;;;3.47;1.80;;;;;;;;;;5073872;28;20205;-68
2022/04/04 08:41:41;;;;;;;3.07;1.53;;;;;;;;;;5074315;28;20268;-69
2022/04/04 08:44:08;;;;;;;3.53;1.40;;;;;;;;;;5073677;28;20252;-67
2022/04/04 08:46:36;;;;;;;2.17;1.40;;;;;;;;;;5078586;28;20201;-70
2022/04/04 08:49:04;;;;;;;4.10;1.47;;;;;;;;;;5072498;28;20643;-71
2022/04/04 08:51:31;;;;;;;1.43;1.23;;;;;;;;;;5070920;28;20630;-71
2022/04/04 08:53:58;;;;;;;1.60;1.17;;;;;;;;;;5061926;28;20197;-68
2022/04/04 08:56:26;;;;;;;2.10;1.20;;;;;;;;;;5074252;28;20223;-68
2022/04/04 08:58:54;;;;;;;3.50;1.30;;;;;;;;;;5073593;28;20229;-69
2022/04/04 09:01:22;;;;;;;2.73;1.50;;;;;;;;;;5067369;28;20244;-67
2022/04/04 09:04:12;;;;;;;4.50;1.50;;;;;;;;;;5071222;28;20820;-67
2022/04/04 09:06:50;;;;;;;1.83;1.30;;;;;;;;;;5072023;28;20220;-67
2022/04/04 09:09:18;;;;;;;2.27;1.33;;;;;;;;;;5070401;28;20586;-64
2022/04/04 09:12:13;;;;;;;6.00;1.57;;;;;;;;;;5066974;28;20236;-65
2022/04/04 09:14:43;;;;;;;4.77;1.77;;;;;;;;;;5069002;28;20213;-67
2022/04/04 09:17:11;;;;;;;3.53;1.90;;;;;;;;;;5076166;28;20256;-66
2022/04/04 09:19:42;;;;;;;4.60;2.07;;;;;;;;;;5051482;28;20217;-65
2022/04/04 09:22:15;;;;;;;7.63;2.80;;;;;;;;;;5064074;28;20193;-67
2022/04/04 09:24:49;;;;;;;5.57;2.67;;;;;;;;;;5073471;28;20638;-66
2022/04/04 09:27:24;;;;;;;4.03;2.53;;;;;;;;;;5076865;28;20205;-65
2022/04/04 09:29:57;;;;;;;4.97;2.53;;;;;;;;;;5062227;28;20251;-66
2022/04/04 09:32:46;;;;;;;7.00;2.50;;;;;;;;;;5079130;28;20197;-66
2022/04/04 09:35:18;;;;;;;6.07;2.23;;;;;;;;;;5069978;28;21079;-67
2022/04/04 09:37:48;;;;;;;3.37;2.20;;;;;;;;;;5062783;28;20205;-68
2022/04/04 09:40:19;;;;;;;3.20;2.00;;;;;;;;;;5080378;28;20231;-69
2022/04/04 09:42:59;;;;;;;4.67;2.33;;;;;;;;;;5071250;28;20197;-69
2022/04/04 09:45:33;;;;;;;5.43;2.03;;;;;;;;;;5078086;28;20291;-69
2022/04/04 09:48:03;;;;;;;5.53;2.40;;;;;;;;;;5078217;28;20213;-69
2022/04/04 09:50:41;;;;;;;4.40;2.27;;;;;;;;;;5059812;28;20209;-67
2022/04/04 09:53:22;;;;;;;5.83;2.03;;;;;;;;;;5076612;28;20193;-67
2022/04/04 09:55:56;;;;;;;2.63;1.70;;;;;;;;;;5062372;28;20205;-68
2022/04/04 09:58:31;;;;;;;2.87;1.60;;;;;;;;;;5051406;28;20607;-69
2022/04/04 10:01:02;;;;;;;4.03;1.60;;;;;;;;;;5058483;28;20220;-70
2022/04/04 10:03:38;;;;;;;2.90;1.67;;;;;;;;;;5058629;28;20288;-70
2022/04/04 10:06:10;;;;;;;3.67;1.60;;;;;;;;;;5082448;28;20202;-67
2022/04/04 10:08:40;;;;;;;3.43;1.70;;;;;;;;;;5080954;28;20599;-69
2022/04/04 10:11:11;;;;;;;5.23;1.80;;;;;;;;;;5078240;28;20208;-69
2022/04/04 10:13:46;;;;;;;4.53;1.93;;;;;;;;;;5055787;28;20228;-69
2022/04/04 10:16:16;;;;;;;3.27;1.40;;;;;;;;;;5077741;28;20201;-67
2022/04/04 10:18:48;;;;;;;6.43;1.90;;;;;;;;;;5049481;28;20298;-69
2022/04/04 10:21:18;;;;;;;2.30;1.47;;;;;;;;;;5079408;28;20619;-69
2022/04/04 10:23:50;;;;;;;5.13;1.80;;;;;;;;;;5074566;28;20218;-69
2022/04/04 10:26:20;;;;;;;2.67;1.70;;;;;;;;;;5043902;28;20201;-66
2022/04/04 10:28:51;;;;;;;2.83;1.47;;;;;;;;;;5064191;28;20197;-67
2022/04/04 10:31:25;;;;;;;2.13;1.60;;;;;;;;;;5076132;28;20293;-68
2022/04/04 10:33:53;;;;;;;3.23;1.33;;;;;;;;;;5061661;28;20227;-68
2022/04/04 10:36:26;;;;;;;3.50;1.60;;;;;;;;;;5071783;28;20252;-71
2022/04/04 10:38:54;;;;;;;2.83;1.77;;;;;;;;;;5071313;28;20205;-72
2022/04/04 10:41:32;;;;;;;3.00;1.40;;;;;;;;;;5047064;28;20209;-71
2022/04/04 10:44:00;;;;;;;2.60;1.83;;;;;;;;;;5061412;28;20225;-71
2022/04/04 10:46:27;;;;;;;1.63;1.43;;;;;;;;;;5064343;28;20202;-70
2022/04/04 10:49:06;;;;;;;4.50;1.47;;;;;;;;;;5046419;28;20694;-70
2022/04/04 10:51:35;;;;;;;2.03;1.50;;;;;;;;;;5073547;28;20657;-69
2022/04/04 10:54:12;;;;;;;2.90;1.73;;;;;;;;;;5060701;28;20205;-70
2022/04/04 10:56:40;;;;;;;1.63;1.37;;;;;;;;;;5073160;28;20200;-69
2022/04/04 10:59:17;;;;;;;3.03;1.77;;;;;;;;;;5076039;28;20229;-67
2022/04/04 11:01:45;;;;;;;5.07;1.73;;;;;;;;;;5078006;28;20221;-69
2022/04/04 11:04:29;;;;;;;5.43;1.63;;;;;;;;;;5076092;28;20200;-69
2022/04/04 11:09:55;;;;;;;3.40;1.70;;;;;;;;;;5077902;28;20240;-68
2022/04/04 11:12:27;;;;;;;5.90;1.80;;;;;;;;;;5078053;28;20559;-66
2022/04/04 11:15:09;;;;;;;5.27;1.60;;;;;;;;;;5060001;28;20216;-66
2022/04/04 11:18:00;;;;;;;4.50;1.67;;;;;;;;;;5078056;28;20202;-66
2022/04/04 11:20:33;;;;;;;3.30;1.33;;;;;;;;;;5061270;28;20228;-68
2022/04/04 11:23:08;;;;;;;2.90;1.27;;;;;;;;;;5080454;28;20255;-66
2022/04/04 11:25:38;;;;;;;2.70;1.37;;;;;;;;;;5072835;28;20267;-69
2022/04/04 11:28:05;;;;;;;3.20;1.10;;;;;;;;;;5077012;28;20197;-69
2022/04/04 11:30:33;;;;;;;1.87;1.40;;;;;;;;;;5076353;28;20189;-71
2022/04/04 11:33:00;;;;;;;2.63;1.50;;;;;;;;;;5078347;28;20205;-70
2022/04/04 11:35:30;;;;;;;2.23;1.60;;;;;;;;;;5054381;28;20211;-68
2022/04/04 11:38:03;;;;;;;3.17;1.40;;;;;;;;;;5067097;28;20882;-66
2022/04/04 11:40:38;;;;;;;1.60;1.30;;;;;;;;;;5079420;28;20292;-68
2022/04/04 11:43:06;;;;;;;5.03;1.03;;;;;;;;;;5075459;28;20192;-69
2022/04/04 11:45:39;;;;;;;2.20;1.30;;;;;;;;;;5073350;28;20197;-67
2022/04/04 11:48:10;;;;;;;2.17;1.23;;;;;;;;;;5056258;28;20201;-66
2022/04/04 11:50:38;;;;;;;1.43;1.33;;;;;;;;;;5077456;28;20224;-70
2022/04/04 11:53:16;;;;;;;1.60;1.20;;;;;;;;;;5077404;28;20669;-71
2022/04/04 11:55:46;;;;;;;3.97;1.80;;;;;;;;;;5076404;28;20200;-70
2022/04/04 11:58:14;;;;;;;2.10;1.70;;;;;;;;;;5072252;28;20201;-71
2022/04/04 12:00:43;;;;;;;2.47;1.50;;;;;;;;;;5072272;28;20233;-68
2022/04/04 12:03:15;;;;;;;3.00;1.40;;;;;;;;;;5077747;28;20201;-68
2022/04/04 12:05:49;;;;;;;1.63;1.10;;;;;;;;;;5075246;28;20242;-68
2022/04/04 12:08:17;;;;;;;1.37;1.13;;;;;;;;;;5070381;28;20188;-69
2022/04/04 12:10:47;;;;;;;3.00;1.20;;;;;;;;;;5076993;28;20202;-68
2022/04/04 12:13:18;;;;;;;1.70;1.20;;;;;;;;;;5070136;28;20266;-67
2022/04/04 12:15:46;;;;;;;1.80;1.10;;;;;;;;;;5074184;28;20225;-70
2022/04/04 12:18:24;;;;;;;2.63;1.30;;;;;;;;;;5073842;28;20228;-69
2022/04/04 12:20:52;;;;;;;2.73;1.23;;;;;;;;;;5075209;28;20206;-69
2022/04/04 12:26:09;;;;;;;3.87;1.40;;;;;;;;;;5073680;28;20891;-70
2022/04/04 12:28:40;;;;;;;1.23;1.07;;;;;;;;;;5073339;28;20193;-68
2022/04/04 12:31:20;;;;;;;2.20;1.10;;;;;;;;;;5058432;28;20204;-69
2022/04/04 12:34:07;;;;;;;2.20;1.33;;;;;;;;;;5073038;28;20719;-68
2022/04/04 12:36:47;;;;;;;3.03;1.33;;;;;;;;;;5069432;28;20255;-65
2022/04/04 12:39:19;;;;;;;1.40;1.30;;;;;;;;;;5071857;28;20613;-65
2022/04/04 12:41:50;;;;;;;2.17;1.50;;;;;;;;;;5069011;28;20233;-68
2022/04/04 12:44:20;;;;;;;2.43;1.60;;;;;;;;;;5058991;28;20217;-68
2022/04/04 12:46:48;;;;;;;1.47;1.37;;;;;;;;;;5058099;28;20197;-65
2022/04/04 12:49:15;;;;;;;2.17;1.23;;;;;;;;;;5065510;28;20212;-64
2022/04/04 12:51:52;;;;;;;1.27;1.00;;;;;;;;;;5075507;28;20258;-68
2022/04/04 12:54:29;;;;;;;1.23;0.90;;;;;;;;;;5075938;28;20196;-68
2022/04/04 12:56:57;;;;;;;1.37;0.63;;;;;;;;;;5078060;28;20275;-65
2022/04/04 12:59:25;;;;;;;2.77;0.97;;;;;;;;;;5069902;28;20244;-64
2022/04/04 13:02:05;;;;;;;1.73;1.00;;;;;;;;;;5076670;28;20504;-68
2022/04/04 13:04:33;;;;;;;3.10;1.00;;;;;;;;;;5077837;28;20209;-70
2022/04/04 13:07:00;;;;;;;2.87;0.80;;;;;;;;;;5075669;28;20720;-64
2022/04/04 13:09:29;;;;;;;3.23;1.00;;;;;;;;;;5074569;28;20662;-68
2022/04/04 13:11:57;;;;;;;2.50;0.90;;;;;;;;;;5077699;28;20531;-69
2022/04/04 13:14:25;;;;;;;0.80;0.60;;;;;;;;;;5059302;28;20197;-70
2022/04/04 13:17:03;;;;;;;1.17;0.80;;;;;;;;;;5082519;28;20799;-67
2022/04/04 13:19:31;;;;;;;0.93;0.67;;;;;;;;;;5078832;28;20619;-68
2022/04/04 13:22:02;;;;;;;3.50;0.97;;;;;;;;;;5077736;28;20215;-71
2022/04/04 13:24:33;;;;;;;0.67;0.57;;;;;;;;;;5076194;28;20644;-68
2022/04/04 13:27:04;;;;;;;1.20;0.90;;;;;;;;;;5078867;28;20263;-66
2022/04/04 13:29:37;;;;;;;0.67;0.60;;;;;;;;;;5078925;28;20189;-66
2022/04/04 13:32:07;;;;;;;0.73;0.70;;;;;;;;;;5078804;28;20194;-67
2022/04/04 13:34:36;;;;;;;2.33;0.60;;;;;;;;;;5075337;28;20198;-67
2022/04/04 13:37:07;;;;;;;3.53;1.10;;;;;;;;;;5065272;28;20205;-70
2022/04/04 13:39:39;;;;;;;0.93;0.93;;;;;;;;;;5072479;28;20193;-70
2022/04/04 13:42:15;;;;;;;2.07;0.80;;;;;;;;;;5068041;28;20249;-69
2022/04/04 13:44:44;;;;;;;1.10;0.90;;;;;;;;;;5061262;28;20190;-67
2022/04/04 13:47:13;;;;;;;1.60;0.80;;;;;;;;;;5076492;28;20202;-67
2022/04/04 13:49:40;;;;;;;1.00;0.87;;;;;;;;;;5075524;28;20300;-67
2022/04/04 13:52:11;;;;;;;1.60;1.00;;;;;;;;;;5078665;28;20246;-70
2022/04/04 13:54:39;;;;;;;2.30;0.80;;;;;;;;;;5079114;28;20258;-69
2022/04/04 13:57:06;;;;;;;1.00;0.90;;;;;;;;;;5077254;28;20211;-67
2022/04/04 13:59:34;;;;;;;4.97;1.00;;;;;;;;;;5071621;28;20365;-70
2022/04/04 14:02:01;;;;;;;1.90;1.10;;;;;;;;;;5079199;28;20559;-70
2022/04/04 14:04:29;;;;;;;1.47;1.00;;;;;;;;;;5073834;28;20186;-69
2022/04/04 14:06:56;;;;;;;2.87;1.07;;;;;;;;;;5079041;28;20601;-68
2022/04/04 14:09:24;;;;;;;2.60;0.90;;;;;;;;;;5077693;28;20266;-69
2022/04/04 14:11:54;;;;;;;3.80;1.27;;;;;;;;;;5075489;28;20205;-70
2022/04/04 14:14:30;;;;;;;2.73;1.00;;;;;;;;;;5078641;28;20197;-71
2022/04/04 14:17:03;;;;;;;2.20;0.90;;;;;;;;;;5077383;28;20551;-65
2022/04/04 14:19:36;;;;;;;1.03;0.90;;;;;;;;;;5076520;28;20196;-66
2022/04/04 14:22:05;;;;;;;1.67;1.13;;;;;;;;;;5076991;28;20213;-69
2022/04/04 14:24:34;;;;;;;2.20;1.33;;;;;;;;;;5072953;28;20228;-68
2022/04/04 14:27:05;;;;;;;0.90;0.90;;;;;;;;;;5075479;28;20209;-67
2022/04/04 14:29:38;;;;;;;0.73;0.73;;;;;;;;;;5077774;28;20383;-66
2022/04/04 14:32:07;;;;;;;1.20;1.10;;;;;;;;;;5078419;28;20217;-66
2022/04/04 14:34:34;;;;;;;2.63;0.90;;;;;;;;;;5077104;28;20866;-68
2022/04/04 14:37:02;;;;;;;1.80;1.30;;;;;;;;;;5076497;28;20277;-67
2022/04/04 14:39:34;;;;;;;1.10;0.93;;;;;;;;;;5082306;28;20252;-67
2022/04/04 14:42:03;;;;;;;1.10;0.93;;;;;;;;;;5070509;28;20234;-69
2022/04/04 14:44:35;;;;;;;1.07;0.77;;;;;;;;;;5073016;28;20196;-69
2022/04/04 14:47:07;;;;;;;1.60;1.10;;;;;;;;;;5069462;28;20732;-66
2022/04/04 14:49:57;;;;;;;1.10;1.00;;;;;;;;;;5072927;28;20654;-67
2022/04/04 14:52:25;;;;;;;1.10;0.93;;;;;;;;;;5075229;28;20631;-67
2022/04/04 14:54:56;;;;;;;0.70;0.70;;;;;;;;;;5052016;28;20220;-67
2022/04/04 14:57:24;;;;;;;1.00;0.90;;;;;;;;;;5070085;28;20220;-67
2022/04/04 14:59:54;;;;;;;0.80;0.80;;;;;;;;;;5066435;28;20635;-66
2022/04/04 15:02:26;;;;;;;2.50;1.03;;;;;;;;;;5066835;28;20221;-69
2022/04/04 15:05:15;;;;;;;1.00;0.87;;;;;;;;;;5064788;28;20205;-66